Terminal Aerodrome Forecast
Issued by NWS Buffalo, NY

Home | Current Version | Previous Version | Text Only | Print | Product List | Glossary On
Versions: 1 2 3 4 5 6 7 8 9 10 11 12 13 14 15 16 17 18 19 20 21 22 23
180
FTUS41 KBUF 190520
TAFROC
TAF
KROC 190520Z 1906/2006 25007KT P6SM OVC070
     FM191400 26012KT P6SM SCT035
     FM191700 26013G21KT P6SM SCT050
     FM192300 27012KT P6SM BKN050
     FM200200 27008KT P6SM SCT050=

USA.gov is the U.S. government's official web portal to all federal, state and local government web resources and services.